Time;durP1;ratioP1;P1;durP2;ratioP2;P2;SDS_P1;SDS_P2;PMS_P1;PMS_P2;Temp;Humidity;BMP_temperature;BMP_pressure;BME280_temperature;BME280_humidity;BME280_pressure;Samples;Min_cycle;Max_cycle;Signal;HPM_P1;HPM_P2
2024/01/21 00:00:54;;;;;;;9.52;6.82;;;4.50;57.50;6.40;102130.00;;;;5038652;28;20204;-77
2024/01/21 00:03:21;;;;;;;10.30;6.10;;;4.50;57.40;6.40;102130.00;;;;5048420;28;20619;-77
2024/01/21 00:05:48;;;;;;;9.82;6.60;;;4.50;57.30;6.40;102120.00;;;;5047182;28;20204;-77
2024/01/21 00:08:15;;;;;;;9.63;7.00;;;4.50;57.30;6.40;102114.00;;;;5043228;28;20220;-77
2024/01/21 00:10:42;;;;;;;8.68;6.05;;;4.50;57.30;6.40;102118.00;;;;5040140;28;20214;-77
2024/01/21 00:13:09;;;;;;;9.50;6.57;;;4.50;57.30;6.40;102104.00;;;;5051337;28;20191;-77
2024/01/21 00:15:36;;;;;;;9.45;6.88;;;4.50;57.40;6.40;102107.00;;;;5050588;28;20281;-77
2024/01/21 00:18:05;;;;;;;9.48;6.15;;;4.50;57.30;6.40;102101.00;;;;5045185;28;20195;-78
2024/01/21 00:20:32;;;;;;;8.13;5.88;;;4.50;57.20;6.40;102094.00;;;;5031208;28;20192;-77
2024/01/21 00:22:59;;;;;;;11.93;6.63;;;4.50;57.20;6.40;102081.00;;;;5031271;28;20196;-78
2024/01/21 00:25:26;;;;;;;9.02;6.03;;;4.50;57.20;6.40;102086.00;;;;5031595;28;20588;-77
2024/01/21 00:27:53;;;;;;;9.13;6.30;;;4.50;57.20;6.40;102074.00;;;;5041992;28;20235;-77
2024/01/21 00:30:20;;;;;;;7.93;5.88;;;4.50;57.20;6.40;102092.00;;;;5045324;28;20342;-77
2024/01/21 00:32:48;;;;;;;8.15;5.93;;;4.50;57.20;6.40;102097.00;;;;5030624;28;20674;-77
2024/01/21 00:35:16;;;;;;;9.32;6.57;;;4.50;57.20;6.40;102088.00;;;;5042793;28;20250;-78
2024/01/21 00:37:44;;;;;;;10.35;6.93;;;4.50;57.20;6.40;102070.00;;;;5037985;28;20204;-77
2024/01/21 00:40:11;;;;;;;9.40;6.50;;;4.50;57.20;6.40;102073.00;;;;5046932;28;20314;-77
2024/01/21 00:42:38;;;;;;;8.75;6.25;;;4.50;57.20;6.40;102070.00;;;;5031417;28;20569;-77
2024/01/21 00:45:07;;;;;;;8.63;6.00;;;4.50;57.10;6.40;102067.00;;;;5041399;28;20206;-77
2024/01/21 00:47:34;;;;;;;9.20;6.25;;;4.50;57.00;6.50;102060.00;;;;5036896;28;20669;-77
2024/01/21 00:50:01;;;;;;;8.43;6.07;;;4.50;57.00;6.50;102052.00;;;;5029974;28;20203;-77
2024/01/21 00:52:29;;;;;;;8.65;5.60;;;4.50;57.00;6.40;102052.00;;;;5029855;28;20279;-77
2024/01/21 00:54:56;;;;;;;7.68;5.35;;;4.50;57.00;6.40;102049.00;;;;5039255;28;20201;-78
2024/01/21 00:57:23;;;;;;;9.45;5.93;;;4.50;57.00;6.40;102046.00;;;;5036400;28;20231;-77
2024/01/21 00:59:50;;;;;;;7.72;5.57;;;4.50;56.90;6.40;102038.00;;;;5050618;28;20208;-77
2024/01/21 01:02:17;;;;;;;9.57;5.50;;;4.50;56.80;6.40;102042.00;;;;5042064;28;20215;-78
2024/01/21 01:04:44;;;;;;;7.72;5.43;;;4.50;56.80;6.40;102039.00;;;;5036116;28;20202;-77
2024/01/21 01:07:11;;;;;;;8.02;5.13;;;4.50;56.70;6.30;102033.00;;;;5051392;28;20230;-77
2024/01/21 01:09:39;;;;;;;9.13;5.75;;;4.50;56.70;6.30;102027.00;;;;5043874;28;20747;-77
2024/01/21 01:12:07;;;;;;;8.00;5.03;;;4.50;56.50;6.30;102028.00;;;;5030742;28;20246;-77
2024/01/21 01:14:34;;;;;;;7.78;4.97;;;4.40;56.40;6.20;102013.00;;;;5046354;28;20287;-78
2024/01/21 01:17:00;;;;;;;6.45;5.13;;;4.40;56.40;6.20;102005.00;;;;5030447;28;20576;-78
2024/01/21 01:19:27;;;;;;;8.05;5.05;;;4.40;56.30;6.20;101998.00;;;;5030215;28;20204;-77
2024/01/21 01:21:54;;;;;;;8.65;5.55;;;4.40;56.40;6.20;101987.00;;;;5030801;28;20204;-77
2024/01/21 01:24:21;;;;;;;6.53;4.70;;;4.40;56.30;6.20;101980.00;;;;5045385;28;20220;-77
2024/01/21 01:26:49;;;;;;;6.53;4.85;;;4.40;56.40;6.10;101965.00;;;;5048552;28;20220;-77
2024/01/21 01:29:16;;;;;;;6.60;4.50;;;4.30;56.30;6.20;101964.00;;;;5039022;28;20504;-77
2024/01/21 01:31:43;;;;;;;5.88;4.45;;;4.30;56.30;6.10;101942.00;;;;5029016;28;20211;-77
2024/01/21 01:34:12;;;;;;;6.72;4.75;;;4.30;56.30;6.10;101937.00;;;;5043815;28;20199;-77
2024/01/21 01:36:39;;;;;;;6.82;4.50;;;4.30;56.20;6.10;101935.00;;;;5036736;28;20195;-77
2024/01/21 01:39:07;;;;;;;6.53;4.97;;;4.30;56.30;6.10;101927.00;;;;5044767;28;20242;-77
2024/01/21 01:41:34;;;;;;;7.13;4.80;;;4.20;56.20;6.00;101912.00;;;;5030651;28;20274;-77
2024/01/21 01:44:03;;;;;;;6.88;5.32;;;4.20;56.10;6.00;101898.00;;;;5043557;28;20203;-77
2024/01/21 01:46:30;;;;;;;6.15;3.78;;;4.20;56.00;6.00;101920.00;;;;5036362;28;20204;-77
2024/01/21 01:48:59;;;;;;;6.70;4.43;;;4.20;56.00;5.90;101902.00;;;;5029151;28;20683;-77
2024/01/21 01:51:27;;;;;;;5.30;4.47;;;4.10;55.90;5.90;101911.00;;;;5030222;28;20196;-78
2024/01/21 01:53:54;;;;;;;6.72;4.30;;;4.10;56.50;5.90;101914.00;;;;5041803;28;20584;-77
2024/01/21 01:56:22;;;;;;;7.00;4.30;;;4.10;56.00;5.90;101910.00;;;;5047518;28;20207;-77
2024/01/21 01:58:52;;;;;;;6.07;3.80;;;4.10;55.90;5.80;101902.00;;;;5033366;28;20232;-77
2024/01/21 02:01:21;;;;;;;4.25;3.33;;;4.10;55.90;5.80;101906.00;;;;5037412;28;20203;-77
2024/01/21 02:03:48;;;;;;;4.78;3.22;;;4.00;55.70;5.80;101894.00;;;;5035872;28;20296;-77
2024/01/21 02:06:16;;;;;;;6.13;3.88;;;4.00;55.90;5.80;101905.00;;;;5028779;28;20666;-77
2024/01/21 02:08:43;;;;;;;6.55;4.38;;;4.00;55.90;5.80;101907.00;;;;5029901;28;20728;-77
2024/01/21 02:11:09;;;;;;;5.75;3.67;;;4.00;55.80;5.80;101902.00;;;;5034801;28;20384;-77
2024/01/21 02:13:36;;;;;;;6.35;3.90;;;4.00;55.80;5.90;101897.00;;;;5040953;28;20204;-75
2024/01/21 02:16:04;;;;;;;4.32;3.30;;;4.00;55.70;5.90;101899.00;;;;5031634;28;20211;-74
2024/01/21 02:18:36;;;;;;;6.10;3.78;;;4.00;55.80;5.80;101895.00;;;;5029119;28;20654;-77
2024/01/21 02:21:03;;;;;;;5.57;3.45;;;4.00;55.70;5.90;101896.00;;;;5034500;28;20206;-75
2024/01/21 02:23:32;;;;;;;5.55;3.38;;;4.00;55.70;5.90;101894.00;;;;5047333;28;20196;-76
2024/01/21 02:25:59;;;;;;;5.45;3.53;;;4.00;55.80;5.90;101893.00;;;;5047985;28;20206;-75
2024/01/21 02:28:25;;;;;;;4.00;2.65;;;4.10;55.70;5.90;101872.00;;;;5036981;28;20754;-75
2024/01/21 02:30:52;;;;;;;7.30;3.40;;;4.10;55.70;6.00;101881.00;;;;5033208;28;20202;-75
2024/01/21 02:33:19;;;;;;;5.35;3.42;;;4.10;55.70;6.00;101873.00;;;;5047037;28;20207;-75
2024/01/21 02:35:46;;;;;;;4.30;3.15;;;4.10;55.60;6.00;101863.00;;;;5045093;28;20202;-76
2024/01/21 02:38:13;;;;;;;5.13;3.20;;;4.10;55.60;6.00;101850.00;;;;5029213;28;20704;-76
2024/01/21 02:40:42;;;;;;;5.53;3.47;;;4.20;55.60;6.00;101846.00;;;;5029400;28;20204;-76
2024/01/21 02:43:08;;;;;;;4.55;3.45;;;4.20;55.60;6.00;101846.00;;;;5047649;28;20492;-76
2024/01/21 02:45:35;;;;;;;4.82;3.03;;;4.20;55.60;6.00;101830.00;;;;5049079;28;20211;-76
2024/01/21 02:48:03;;;;;;;5.10;3.25;;;4.20;55.60;6.10;101820.00;;;;5048786;28;20226;-75
2024/01/21 02:50:30;;;;;;;5.50;3.13;;;4.20;55.50;6.10;101825.00;;;;5041397;28;20596;-76
2024/01/21 02:52:57;;;;;;;5.15;3.33;;;4.20;55.40;6.10;101814.00;;;;5038595;28;20192;-76
2024/01/21 02:55:24;;;;;;;4.15;3.00;;;4.20;55.30;6.10;101812.00;;;;5029019;28;20571;-76
2024/01/21 02:57:52;;;;;;;3.38;2.40;;;4.20;55.20;6.10;101806.00;;;;5038631;28;20231;-75
2024/01/21 03:00:20;;;;;;;4.00;3.03;;;4.30;55.30;6.10;101801.00;;;;5042915;28;20213;-75
2024/01/21 03:02:47;;;;;;;5.25;3.13;;;4.30;55.20;6.10;101800.00;;;;5028171;28;20207;-76
2024/01/21 03:05:14;;;;;;;4.05;2.78;;;4.30;55.10;6.10;101792.00;;;;5046962;28;20407;-76
2024/01/21 03:07:40;;;;;;;3.90;2.85;;;4.30;55.20;6.20;101790.00;;;;5040911;28;20196;-76
2024/01/21 03:10:08;;;;;;;5.93;3.10;;;4.30;55.40;6.20;101781.00;;;;5028085;28;20223;-76
2024/01/21 03:12:36;;;;;;;4.97;2.78;;;4.30;55.30;6.20;101775.00;;;;5045203;28;20203;-76
2024/01/21 03:15:05;;;;;;;9.43;2.78;;;4.40;55.20;6.10;101772.00;;;;5046685;28;20199;-76
2024/01/21 03:17:32;;;;;;;3.08;2.10;;;4.40;55.10;6.20;101771.00;;;;5043866;28;20205;-76
2024/01/21 03:19:59;;;;;;;4.88;3.00;;;4.40;55.10;6.20;101767.00;;;;5027964;28;20207;-75
2024/01/21 03:22:27;;;;;;;4.50;3.17;;;4.40;55.10;6.20;101759.00;;;;5045238;28;20199;-76
2024/01/21 03:24:54;;;;;;;5.45;2.97;;;4.40;55.10;6.20;101762.00;;;;5045002;28;20203;-76
2024/01/21 03:27:21;;;;;;;5.28;2.67;;;4.40;55.10;6.20;101769.00;;;;5043450;28;20220;-75
2024/01/21 03:29:48;;;;;;;5.47;3.28;;;4.40;55.10;6.20;101766.00;;;;5027177;28;20749;-76
2024/01/21 03:32:16;;;;;;;4.78;3.03;;;4.40;54.90;6.20;101760.00;;;;5042768;28;20210;-76
2024/01/21 03:34:44;;;;;;;4.40;3.08;;;4.40;55.00;6.30;101756.00;;;;5047683;28;20561;-76
2024/01/21 03:37:11;;;;;;;4.53;2.92;;;4.50;54.90;6.30;101762.00;;;;5048355;28;20202;-75
2024/01/21 03:39:38;;;;;;;3.83;2.55;;;4.50;54.80;6.30;101757.00;;;;5034713;28;20196;-76
2024/01/21 03:42:05;;;;;;;4.43;3.03;;;4.50;54.80;6.30;101756.00;;;;5040317;28;20199;-76
2024/01/21 03:44:32;;;;;;;4.30;2.65;;;4.50;54.90;6.30;101757.00;;;;5043484;28;20204;-75
2024/01/21 03:47:00;;;;;;;5.05;2.75;;;4.50;54.90;6.30;101755.00;;;;5028343;28;20200;-76
2024/01/21 03:49:28;;;;;;;4.20;2.83;;;4.50;54.90;6.30;101729.00;;;;5033869;28;20442;-76
2024/01/21 03:51:55;;;;;;;4.53;2.83;;;4.50;54.90;6.30;101729.00;;;;5038171;28;20199;-75
2024/01/21 03:54:22;;;;;;;6.03;2.67;;;4.50;54.70;6.30;101730.00;;;;5029682;28;20200;-76
2024/01/21 03:56:49;;;;;;;4.50;3.05;;;4.50;54.70;6.30;101721.00;;;;5028620;28;20192;-76
2024/01/21 03:59:16;;;;;;;3.90;2.88;;;4.50;54.60;6.30;101720.00;;;;5046936;28;20583;-76
2024/01/21 04:01:44;;;;;;;3.38;2.33;;;4.60;54.60;6.30;101723.00;;;;5036091;28;20686;-76
2024/01/21 04:04:11;;;;;;;5.25;3.13;;;4.60;54.60;6.30;101714.00;;;;5026610;28;20212;-76
2024/01/21 04:06:44;;;;;;;5.20;2.53;;;4.50;54.60;6.30;101700.00;;;;5027179;28;20256;-76
2024/01/21 04:09:12;;;;;;;4.05;2.83;;;4.60;54.60;6.30;101694.00;;;;5027347;28;20233;-76
2024/01/21 04:11:41;;;;;;;4.93;3.03;;;4.50;54.40;6.30;101669.00;;;;5038357;28;20717;-76
2024/01/21 04:14:08;;;;;;;5.45;2.83;;;4.50;54.50;6.30;101680.00;;;;5046938;28;20203;-75
2024/01/21 04:16:35;;;;;;;4.15;2.88;;;4.50;54.50;6.30;101682.00;;;;5035080;28;20214;-76
2024/01/21 04:19:02;;;;;;;4.32;2.80;;;4.50;54.60;6.30;101682.00;;;;5037779;28;20675;-76
2024/01/21 04:21:29;;;;;;;5.05;3.08;;;4.50;54.60;6.30;101684.00;;;;5037350;28;20677;-76
2024/01/21 04:23:57;;;;;;;3.92;2.97;;;4.50;54.60;6.30;101684.00;;;;5033440;28;20594;-76
2024/01/21 04:26:24;;;;;;;4.30;2.58;;;4.50;54.60;6.30;101684.00;;;;5027094;28;20637;-76
2024/01/21 04:28:51;;;;;;;4.35;2.67;;;4.50;54.60;6.30;101677.00;;;;5037442;28;20210;-76
2024/01/21 04:31:18;;;;;;;4.68;3.05;;;4.50;54.70;6.40;101670.00;;;;5032124;28;20673;-76
2024/01/21 04:33:45;;;;;;;4.65;2.83;;;4.50;54.70;6.40;101664.00;;;;5050642;28;20215;-76
2024/01/21 04:36:17;;;;;;;4.80;2.90;;;4.50;54.80;6.40;101647.00;;;;5039987;28;20200;-76
2024/01/21 04:38:44;;;;;;;3.95;2.55;;;4.60;54.80;6.40;101651.00;;;;5038183;28;20197;-76
2024/01/21 04:41:13;;;;;;;4.10;2.58;;;4.60;54.70;6.40;101634.00;;;;5035096;28;20199;-76
2024/01/21 04:43:40;;;;;;;4.03;2.47;;;4.60;54.80;6.50;101621.00;;;;5049087;28;20678;-75
2024/01/21 04:46:07;;;;;;;3.38;2.42;;;4.60;54.90;6.50;101629.00;;;;5051498;28;20581;-75
2024/01/21 04:48:35;;;;;;;3.95;2.50;;;4.70;54.80;6.50;101649.00;;;;5043913;28;20223;-76
2024/01/21 04:51:01;;;;;;;3.33;2.42;;;4.70;54.80;6.60;101622.00;;;;5034311;28;20230;-75
2024/01/21 04:53:29;;;;;;;5.88;3.35;;;4.70;54.80;6.60;101620.00;;;;5044230;28;20203;-75
2024/01/21 04:55:56;;;;;;;4.97;3.13;;;4.70;54.80;6.60;101634.00;;;;5034768;28;20200;-75
2024/01/21 04:58:24;;;;;;;5.18;2.80;;;4.80;54.80;6.60;101650.00;;;;5037396;28;20242;-75
2024/01/21 05:00:51;;;;;;;4.40;2.65;;;4.80;54.70;6.60;101630.00;;;;5035740;28;20200;-75
2024/01/21 05:03:18;;;;;;;4.90;2.90;;;4.80;54.80;6.70;101613.00;;;;5048741;28;20218;-75
2024/01/21 05:05:45;;;;;;;5.07;2.83;;;4.80;54.80;6.70;101596.00;;;;5051137;28;20666;-75
2024/01/21 05:08:12;;;;;;;4.80;2.72;;;4.90;54.90;6.70;101624.00;;;;5050094;28;20200;-75
2024/01/21 05:10:38;;;;;;;6.85;3.08;;;4.90;54.80;6.70;101629.00;;;;5035860;28;20222;-75
2024/01/21 05:13:05;;;;;;;5.47;3.40;;;4.90;54.80;6.80;101637.00;;;;5048998;28;20274;-75
2024/01/21 05:15:34;;;;;;;4.00;2.70;;;4.90;54.80;6.80;101627.00;;;;5030469;28;20673;-75
2024/01/21 05:18:01;;;;;;;3.67;2.80;;;5.00;54.90;6.80;101619.00;;;;5045234;28;20200;-75
2024/01/21 05:20:27;;;;;;;4.40;2.70;;;5.00;54.90;6.80;101623.00;;;;5036374;28;20673;-75
2024/01/21 05:22:55;;;;;;;4.05;2.55;;;5.00;54.90;6.90;101613.00;;;;5047895;28;20203;-76
2024/01/21 05:25:22;;;;;;;4.28;2.60;;;5.00;54.90;6.90;101614.00;;;;5036741;28;20270;-75
2024/01/21 05:27:49;;;;;;;5.18;3.17;;;5.10;54.90;6.90;101590.00;;;;5039999;28;20830;-75
2024/01/21 05:30:17;;;;;;;4.32;2.70;;;5.10;54.90;6.90;101585.00;;;;5032195;28;20217;-78
2024/01/21 05:32:46;;;;;;;5.95;3.53;;;5.10;54.90;6.90;101568.00;;;;5049583;28;20206;-76
2024/01/21 05:35:13;;;;;;;5.57;2.95;;;5.10;54.90;7.00;101570.00;;;;5049510;28;20196;-76
2024/01/21 05:37:40;;;;;;;5.45;3.05;;;5.20;55.00;7.00;101556.00;;;;5047136;28;20511;-76
2024/01/21 05:40:09;;;;;;;4.30;2.85;;;5.20;55.00;7.00;101540.00;;;;5033606;28;20200;-76
2024/01/21 05:42:36;;;;;;;4.07;2.85;;;5.20;54.90;7.00;101525.00;;;;5034308;28;20197;-76
2024/01/21 05:45:04;;;;;;;4.50;2.90;;;5.20;54.90;7.00;101560.00;;;;5037647;28;20195;-76
2024/01/21 05:47:31;;;;;;;4.70;2.65;;;5.20;54.90;7.10;101535.00;;;;5039639;28;20223;-76
2024/01/21 05:49:59;;;;;;;4.95;2.95;;;5.20;54.90;7.00;101539.00;;;;5041349;28;20314;-76
2024/01/21 05:52:26;;;;;;;5.53;2.97;;;5.20;54.90;7.10;101538.00;;;;5013414;28;20686;-77
2024/01/21 05:54:53;;;;;;;4.50;2.78;;;5.30;54.90;7.10;101571.00;;;;5029962;28;20198;-76
2024/01/21 05:57:20;;;;;;;3.90;2.88;;;5.30;54.70;7.10;101564.00;;;;5032743;28;20227;-76
2024/01/21 05:59:47;;;;;;;7.38;3.47;;;5.30;54.70;7.10;101545.00;;;;5037155;28;20208;-76
2024/01/21 06:02:14;;;;;;;6.45;3.78;;;5.30;54.80;7.10;101555.00;;;;5028372;28;20212;-76
2024/01/21 06:04:41;;;;;;;5.97;3.33;;;5.30;55.00;7.20;101547.00;;;;5029054;28;20284;-76
2024/01/21 06:07:09;;;;;;;3.90;2.53;;;5.40;55.00;7.20;101590.00;;;;5038141;28;20211;-76
2024/01/21 06:09:36;;;;;;;5.47;3.28;;;5.40;55.00;7.20;101598.00;;;;5049701;28;20199;-77
2024/01/21 06:12:04;;;;;;;6.65;3.65;;;5.40;55.00;7.20;101601.00;;;;5031473;28;20215;-77
2024/01/21 06:14:30;;;;;;;7.95;3.60;;;5.40;54.90;7.30;101599.00;;;;5032068;28;20196;-76
2024/01/21 06:16:57;;;;;;;5.97;3.58;;;5.50;54.90;7.30;101578.00;;;;5040326;28;20212;-76
2024/01/21 06:19:24;;;;;;;5.03;3.22;;;5.50;54.80;7.30;101571.00;;;;5028079;28;20207;-76
2024/01/21 06:21:51;;;;;;;5.88;4.15;;;5.50;54.80;7.30;101572.00;;;;5041653;28;20200;-76
2024/01/21 06:24:19;;;;;;;4.43;3.28;;;5.50;54.70;7.30;101589.00;;;;5048364;28;20200;-76
2024/01/21 06:26:48;;;;;;;4.90;3.28;;;5.60;55.40;7.30;101559.00;;;;5039199;28;20216;-76
2024/01/21 06:29:15;;;;;;;4.82;3.45;;;5.60;54.80;7.40;101576.00;;;;5030771;28;20204;-77
2024/01/21 06:31:42;;;;;;;5.60;3.30;;;5.60;54.80;7.40;101560.00;;;;5029088;28;20702;-76
2024/01/21 06:34:09;;;;;;;5.00;3.45;;;5.70;54.80;7.40;101595.00;;;;5031965;28;20382;-76
2024/01/21 06:36:35;;;;;;;6.18;3.53;;;5.70;54.80;7.40;101589.00;;;;5041367;28;20199;-77
2024/01/21 06:39:03;;;;;;;5.63;3.28;;;5.70;54.70;7.40;101599.00;;;;5032837;28;20196;-76
2024/01/21 06:41:31;;;;;;;5.05;3.42;;;5.70;54.80;7.40;101598.00;;;;5024187;28;20200;-76
2024/01/21 06:43:58;;;;;;;6.03;3.55;;;5.70;54.70;7.50;101590.00;;;;5029829;28;20204;-76
2024/01/21 06:46:25;;;;;;;5.50;3.67;;;5.70;54.70;7.50;101587.00;;;;5029011;28;20212;-76
2024/01/21 06:48:52;;;;;;;6.00;3.13;;;5.80;54.80;7.50;101596.00;;;;5043123;28;20262;-76
2024/01/21 06:51:31;;;;;;;6.72;3.67;;;5.80;54.80;7.60;101583.00;;;;5036185;28;20232;-76
2024/01/21 06:53:59;;;;;;;4.78;3.28;;;5.80;54.80;7.60;101579.00;;;;5048167;28;20207;-76
2024/01/21 06:56:27;;;;;;;6.53;3.83;;;5.90;54.80;7.60;101553.00;;;;5028824;28;20226;-76
2024/01/21 06:58:55;;;;;;;4.30;3.10;;;5.90;54.60;7.60;101545.00;;;;5043373;28;20223;-77
2024/01/21 07:01:22;;;;;;;5.93;3.35;;;5.90;54.60;7.70;101539.00;;;;5045575;28;20708;-76
2024/01/21 07:03:49;;;;;;;7.07;4.03;;;5.90;54.70;7.70;101520.00;;;;5048875;28;20553;-77
2024/01/21 07:06:16;;;;;;;4.88;3.40;;;5.90;54.50;7.70;101521.00;;;;5035837;28;20931;-76
2024/01/21 07:08:43;;;;;;;5.22;3.40;;;6.00;54.40;7.70;101511.00;;;;5039176;28;20693;-76
2024/01/21 07:11:11;;;;;;;5.85;3.60;;;6.00;54.40;7.70;101517.00;;;;5013487;28;21245;-77
2024/01/21 07:13:39;;;;;;;4.65;3.10;;;6.00;54.40;7.70;101525.00;;;;5008264;28;20223;-77
2024/01/21 07:16:08;;;;;;;6.25;3.75;;;6.00;54.30;7.60;101494.00;;;;5027644;28;20204;-77
2024/01/21 07:18:36;;;;;;;5.38;3.90;;;6.00;54.20;7.60;101512.00;;;;5045355;28;20214;-76
2024/01/21 07:21:03;;;;;;;6.95;3.85;;;6.00;54.20;7.70;101509.00;;;;5048276;28;20568;-76
2024/01/21 07:23:30;;;;;;;5.07;3.28;;;6.00;54.20;7.60;101527.00;;;;5020579;28;20254;-79
2024/01/21 07:25:57;;;;;;;4.35;3.17;;;6.00;54.00;7.60;101547.00;;;;5026970;28;20201;-76
2024/01/21 07:28:24;;;;;;;6.20;3.95;;;5.90;54.10;7.60;101554.00;;;;5029587;28;20207;-76
2024/01/21 07:30:51;;;;;;;6.25;3.67;;;6.00;54.00;7.60;101537.00;;;;5027741;28;20223;-77
2024/01/21 07:33:20;;;;;;;5.88;3.97;;;5.90;53.90;7.50;101545.00;;;;5022016;28;20196;-77
2024/01/21 07:35:49;;;;;;;5.78;3.83;;;5.90;54.00;7.60;101545.00;;;;5025731;28;20683;-77
2024/01/21 07:38:17;;;;;;;6.10;3.63;;;5.90;54.00;7.60;101550.00;;;;5023283;28;20667;-78
2024/01/21 07:40:45;;;;;;;5.63;3.60;;;5.90;53.90;7.50;101574.00;;;;5027112;28;20202;-77
2024/01/21 07:43:12;;;;;;;6.05;3.75;;;5.90;54.00;7.60;101586.00;;;;5033967;28;20212;-78
2024/01/21 07:45:39;;;;;;;6.40;3.95;;;5.90;53.90;7.60;101579.00;;;;5033424;28;20204;-77
2024/01/21 07:48:07;;;;;;;6.28;3.53;;;5.90;53.90;7.60;101584.00;;;;5029681;28;20261;-76
2024/01/21 07:50:35;;;;;;;5.20;3.65;;;5.90;54.10;7.60;101586.00;;;;5025636;28;20222;-77
2024/01/21 07:53:03;;;;;;;5.82;3.33;;;5.90;54.00;7.70;101579.00;;;;5031119;28;20631;-77
2024/01/21 07:55:30;;;;;;;6.63;3.92;;;5.90;54.00;7.70;101579.00;;;;5028927;28;20208;-78
2024/01/21 07:57:57;;;;;;;5.03;3.40;;;5.90;54.00;7.70;101591.00;;;;5026311;28;20235;-77
2024/01/21 08:00:24;;;;;;;4.78;3.47;;;6.00;54.20;7.70;101597.00;;;;5035690;28;20203;-78
2024/01/21 08:02:51;;;;;;;6.18;3.50;;;6.00;54.20;7.80;101604.00;;;;5026086;28;20204;-78
2024/01/21 08:05:18;;;;;;;5.93;3.40;;;6.00;54.20;7.80;101606.00;;;;5029341;28;20208;-78
2024/01/21 08:07:47;;;;;;;5.55;3.40;;;6.00;54.10;7.80;101603.00;;;;5030310;28;20627;-78
2024/01/21 08:10:14;;;;;;;6.03;4.35;;;6.10;54.30;7.80;101594.00;;;;5043064;28;20243;-78
2024/01/21 08:12:41;;;;;;;6.57;4.13;;;6.10;54.30;7.90;101597.00;;;;5044892;28;20294;-79
2024/01/21 08:15:08;;;;;;;4.85;3.67;;;6.10;54.20;7.90;101605.00;;;;5028891;28;20208;-78
2024/01/21 08:17:35;;;;;;;5.68;3.45;;;6.20;54.20;7.90;101599.00;;;;5031098;28;20201;-78
2024/01/21 08:20:02;;;;;;;6.13;3.75;;;6.20;54.10;8.00;101612.00;;;;5030110;28;20674;-78
2024/01/21 08:22:29;;;;;;;5.00;3.58;;;6.20;54.20;8.00;101604.00;;;;5042609;28;20757;-78
2024/01/21 08:24:57;;;;;;;6.47;4.05;;;6.30;54.30;8.00;101600.00;;;;5032260;28;20204;-78
2024/01/21 08:27:25;;;;;;;6.45;4.47;;;6.30;54.00;8.10;101603.00;;;;5028352;28;20215;-77
2024/01/21 08:29:51;;;;;;;6.00;3.90;;;6.30;54.00;8.10;101612.00;;;;5028704;28;20609;-77
2024/01/21 08:32:18;;;;;;;6.80;4.07;;;6.40;54.20;8.20;101612.00;;;;5027856;28;20220;-78
2024/01/21 08:34:45;;;;;;;6.47;4.00;;;6.40;54.10;8.20;101623.00;;;;5030125;28;20666;-78
2024/01/21 08:37:12;;;;;;;6.70;3.83;;;6.40;54.20;8.20;101615.00;;;;5028787;28;20263;-78
2024/01/21 08:39:39;;;;;;;6.88;3.53;;;6.50;54.30;8.30;101627.00;;;;5030408;28;20207;-78
2024/01/21 08:42:08;;;;;;;5.05;3.75;;;6.50;54.30;8.30;101609.00;;;;5022619;28;20557;-78
2024/01/21 08:44:34;;;;;;;5.00;3.38;;;6.60;54.40;8.40;101607.00;;;;5028021;28;20207;-78
2024/01/21 08:47:02;;;;;;;5.50;3.63;;;6.60;54.40;8.40;101602.00;;;;5030003;28;20192;-78
2024/01/21 08:49:29;;;;;;;6.45;3.83;;;6.60;55.00;8.40;101606.00;;;;5034388;28;20670;-77
2024/01/21 08:51:56;;;;;;;4.55;3.67;;;6.70;54.40;8.50;101595.00;;;;5039805;28;20231;-78
2024/01/21 08:54:23;;;;;;;5.47;3.92;;;6.70;54.30;8.50;101606.00;;;;5035703;28;20212;-78
2024/01/21 08:56:49;;;;;;;6.63;3.63;;;6.80;54.20;8.50;101604.00;;;;5041564;28;20199;-78
2024/01/21 08:59:17;;;;;;;4.95;3.53;;;6.80;54.30;8.50;101613.00;;;;5029843;28;20212;-78
2024/01/21 09:01:44;;;;;;;6.55;4.00;;;6.80;54.40;8.60;101619.00;;;;5047676;28;20203;-79
2024/01/21 09:04:11;;;;;;;6.55;4.10;;;6.80;54.10;8.60;101637.00;;;;5042783;28;20208;-79
2024/01/21 09:06:41;;;;;;;6.05;3.75;;;6.90;54.30;8.60;101630.00;;;;5030457;28;20211;-78
2024/01/21 09:09:11;;;;;;;5.40;3.90;;;6.90;54.30;8.60;101623.00;;;;5029987;28;20209;-81
2024/01/21 09:11:39;;;;;;;4.70;3.38;;;6.90;54.30;8.70;101627.00;;;;5034320;28;20224;-79
2024/01/21 09:14:06;;;;;;;4.43;3.53;;;6.90;54.30;8.70;101649.00;;;;5028385;28;20193;-80
2024/01/21 09:16:35;;;;;;;4.75;3.63;;;7.00;54.40;8.70;101649.00;;;;5028624;28;20202;-79
2024/01/21 09:19:03;;;;;;;4.65;3.45;;;7.00;54.50;8.80;101648.00;;;;5025879;28;20207;-79
2024/01/21 09:21:31;;;;;;;5.72;4.13;;;7.00;54.50;8.80;101621.00;;;;5038494;28;20200;-79
2024/01/21 09:24:01;;;;;;;5.53;3.53;;;7.00;54.50;8.80;101609.00;;;;5043831;28;20208;-80
2024/01/21 09:26:28;;;;;;;5.22;3.53;;;7.10;54.70;8.90;101619.00;;;;5025443;28;20577;-80
2024/01/21 09:28:55;;;;;;;5.40;3.60;;;7.10;54.80;8.90;101612.00;;;;5027629;28;20670;-79
2024/01/21 09:31:22;;;;;;;5.85;3.55;;;7.10;54.80;8.90;101622.00;;;;5038642;28;20211;-79
2024/01/21 09:33:50;;;;;;;5.57;3.13;;;7.20;55.00;9.00;101622.00;;;;5038686;28;20192;-80
2024/01/21 09:36:19;;;;;;;4.72;3.65;;;7.20;55.10;9.00;101615.00;;;;5030664;28;20192;-79
2024/01/21 09:38:46;;;;;;;6.43;4.03;;;7.30;55.20;9.00;101622.00;;;;5030329;28;20598;-78
2024/01/21 09:41:32;;;;;;;6.82;3.72;;;7.30;55.20;9.00;101630.00;;;;5033017;28;20669;-79
2024/01/21 09:44:00;;;;;;;4.03;3.25;;;7.30;55.20;9.10;101645.00;;;;5032879;28;20650;-79
2024/01/21 09:46:28;;;;;;;4.03;3.38;;;7.30;55.30;9.10;101643.00;;;;5032732;28;20681;-79
2024/01/21 09:49:00;;;;;;;4.80;3.63;;;7.40;55.40;9.10;101656.00;;;;5029466;28;20563;-78
2024/01/21 09:51:30;;;;;;;5.97;4.00;;;7.40;55.40;9.10;101658.00;;;;5036147;28;20220;-78
2024/01/21 09:53:57;;;;;;;5.30;3.67;;;7.40;55.40;9.20;101645.00;;;;5030498;28;20192;-79
2024/01/21 09:56:24;;;;;;;5.35;3.80;;;7.40;55.40;9.20;101644.00;;;;5048211;28;20215;-78
2024/01/21 09:58:53;;;;;;;6.80;3.72;;;7.50;55.60;9.20;101649.00;;;;5038698;28;20232;-78
2024/01/21 10:01:22;;;;;;;6.07;4.45;;;7.50;55.70;9.20;101650.00;;;;5027610;28;20280;-78
2024/01/21 10:03:49;;;;;;;4.88;3.78;;;7.50;55.80;9.30;101641.00;;;;5031135;28;20189;-79
2024/01/21 10:06:18;;;;;;;5.40;3.70;;;7.50;55.80;9.30;101636.00;;;;5028845;28;20199;-79
2024/01/21 10:08:45;;;;;;;4.85;3.47;;;7.60;55.90;9.30;101636.00;;;;5029793;28;20200;-78
2024/01/21 10:11:12;;;;;;;5.00;3.83;;;7.60;56.00;9.30;101630.00;;;;5043228;28;20220;-78
2024/01/21 10:13:39;;;;;;;5.65;4.35;;;7.60;56.10;9.40;101664.00;;;;5030771;28;20204;-79
2024/01/21 10:16:07;;;;;;;5.25;3.92;;;7.60;56.10;9.30;101637.00;;;;5030916;28;20200;-80
2024/01/21 10:18:35;;;;;;;4.60;3.42;;;7.60;56.20;9.40;101639.00;;;;5039541;28;21142;-80
2024/01/21 10:21:05;;;;;;;5.03;3.58;;;7.60;56.40;9.40;101637.00;;;;5032990;28;20204;-78
2024/01/21 10:23:35;;;;;;;5.45;3.95;;;7.70;56.50;9.40;101631.00;;;;5037489;28;20192;-78
2024/01/21 10:26:02;;;;;;;4.78;3.38;;;7.70;56.70;9.50;101623.00;;;;5034885;28;20196;-80
2024/01/21 10:28:32;;;;;;;5.28;4.25;;;7.70;56.80;9.50;101619.00;;;;5034060;28;20226;-80
2024/01/21 10:30:59;;;;;;;5.13;3.72;;;7.70;56.90;9.50;101629.00;;;;5030812;28;20201;-78
2024/01/21 10:33:26;;;;;;;6.40;4.30;;;7.80;57.00;9.60;101619.00;;;;5028565;28;21007;-80
2024/01/21 10:35:56;;;;;;;6.28;3.92;;;7.80;57.10;9.60;101632.00;;;;5036687;28;20196;-77
2024/01/21 10:38:29;;;;;;;5.20;3.70;;;7.80;57.20;9.60;101629.00;;;;5033856;28;20206;-76
2024/01/21 10:41:00;;;;;;;4.82;3.72;;;7.90;57.40;9.60;101633.00;;;;5032782;28;20258;-78
2024/01/21 10:43:31;;;;;;;6.63;4.60;;;7.90;57.40;9.70;101631.00;;;;5034877;28;20203;-79
2024/01/21 10:45:59;;;;;;;4.90;3.75;;;7.90;57.50;9.70;101619.00;;;;5030207;28;20749;-78
2024/01/21 10:48:27;;;;;;;5.85;3.75;;;7.90;57.60;9.70;101617.00;;;;5028500;28;20208;-77
2024/01/21 10:50:56;;;;;;;6.13;4.10;;;8.00;57.70;9.70;101615.00;;;;5023651;28;20196;-77
2024/01/21 10:53:25;;;;;;;5.25;4.25;;;8.00;57.90;9.80;101613.00;;;;5028562;28;20213;-77
2024/01/21 10:55:53;;;;;;;5.78;4.20;;;8.00;57.90;9.80;101597.00;;;;5026879;28;20200;-78
2024/01/21 10:58:22;;;;;;;5.70;3.88;;;8.10;57.90;9.80;101608.00;;;;5031186;28;20235;-77
2024/01/21 11:00:52;;;;;;;5.38;4.13;;;8.10;58.00;9.80;101604.00;;;;5028597;28;20235;-78
2024/01/21 11:03:29;;;;;;;5.43;3.67;;;8.10;58.00;9.80;101604.00;;;;5029698;28;20207;-77